MDT,Max TemperatureF,Mean TemperatureF,Min TemperatureF,Max Dew PointF,MeanDew PointF,Min DewpointF,Max Humidity, Mean Humidity, Min Humidity, Max Sea Level PressureIn, Mean Sea Level PressureIn, Min Sea Level PressureIn, Max VisibilityMiles, Mean VisibilityMiles, Min VisibilityMiles, Max Wind SpeedMPH, Mean Wind SpeedMPH, Max Gust SpeedMPH,PrecipitationIn, CloudCover, Events, WindDirDegrees
2013-3-1,54,38,21,23,17,11,62,44,26,30.53,30.45,30.37,10,10,10,8,2,12,0.00,0,,186
2013-3-2,58,44,29,25,23,21,66,46,25,30.49,30.34,30.12,10,10,10,9,3,21,0.00,0,,166
2013-3-3,61,47,32,38,29,22,70,48,25,30.09,29.90,29.78,10,10,10,23,5,28,0.04,4,Rain,335
2013-3-4,56,44,31,40,23,1,86,50,14,30.18,29.91,29.74,10,10,10,28,9,36,0.01,1,Rain,287
2013-3-5,51,37,23,15,11,8,60,39,18,30.36,30.23,30.11,10,10,10,14,4,17,0.00,0,,122
2013-3-6,64,46,27,19,16,11,58,36,13,30.11,29.93,29.80,10,10,10,25,6,32,0.00,0,,227
2013-3-7,66,52,38,21,16,6,39,24,9,29.90,29.80,29.73,10,10,10,23,7,32,0.00,0,,184
2013-3-8,51,46,40,37,28,15,79,52,24,29.81,29.69,29.60,10,10,10,24,8,29,0.00,5,,139
2013-3-9,46,41,35,35,29,20,79,64,48,30.14,29.83,29.60,10,10,7,21,9,24,0.01,7,Rain,261
2013-3-10,52,42,32,20,17,15,51,39,27,30.27,30.21,30.15,10,10,10,21,7,26,0.00,1,,4
2013-3-11,58,41,24,24,20,15,68,46,23,30.25,30.16,30.04,10,10,10,18,6,24,0.00,0,,277
2013-3-12,62,48,33,27,25,22,64,45,25,30.22,30.17,30.11,10,10,10,17,4,23,0.00,0,,265
2013-3-13,68,49,29,29,23,19,69,44,19,30.37,30.29,30.22,10,10,10,8,2,12,0.00,0,,264
2013-3-14,72,52,32,28,23,20,61,38,15,30.33,30.24,30.13,10,10,10,10,3,13,0.00,0,,243
2013-3-15,72,56,40,28,23,18,49,33,16,30.11,29.98,29.84,10,10,10,9,3,12,0.00,0,,149
2013-3-16,71,57,43,30,21,12,43,27,11,29.86,29.78,29.69,10,10,10,23,7,29,T,1,,274
2013-3-17,64,52,40,28,16,6,53,32,11,29.83,29.71,29.65,10,10,10,39,16,47,0.00,1,,296
2013-3-18,60,43,26,14,9,3,46,28,10,30.01,29.94,29.83,10,10,10,22,6,28,0.00,0,,281
2013-3-19,59,47,34,15,1,-21,35,20,4,30.15,30.08,29.96,10,10,10,13,3,22,0.00,0,,302
2013-3-20,62,46,30,14,7,-8,27,21,14,30.14,29.97,29.74,10,10,10,13,5,15,0.00,1,,103
2013-3-21,56,46,35,36,16,-3,89,49,9,29.85,29.75,29.67,10,10,10,35,12,49,T,1,Rain,303
2013-3-22,55,42,28,8,3,-3,31,20,9,29.88,29.76,29.62,10,10,10,32,13,40,0.00,1,,301
2013-3-23,42,32,22,6,2,-1,34,27,19,30.17,30.03,29.89,10,10,10,24,10,32,T,3,,314
2013-3-24,47,31,15,6,3,0,49,32,15,30.22,30.16,30.07,10,10,10,24,8,31,0.00,1,,326
2013-3-25,50,37,23,7,4,2,37,27,16,30.27,30.17,30.10,10,10,10,20,5,23,0.00,1,,79
2013-3-26,64,48,32,11,7,1,29,21,13,30.09,29.95,29.80,10,10,10,13,6,17,0.00,0,,103
2013-3-27,69,50,31,21,12,9,41,25,9,29.97,29.90,29.86,10,10,10,15,2,21,0.00,0,,212
2013-3-28,72,58,44,18,15,11,28,20,11,29.96,29.91,29.86,10,10,10,22,5,26,0.00,0,,208
2013-3-29,72,56,39,26,21,15,37,26,14,30.09,30.01,29.94,10,10,10,14,5,21,0.00,1,,294
2013-3-30,72,55,38,28,25,21,51,34,17,30.10,30.03,29.96,10,10,10,28,6,35,0.00,1,,280
2013-3-31,72,54,35,32,23,13,51,31,10,30.05,29.94,29.83,10,10,10,36,7,40,T,1,,282